sensor_id;sensor_type;location;lat;lon;timestamp;P1;durP1;ratioP1;P2;durP2;ratioP2
43919;SDS011;29578;51.946;5.874;2023-09-12T00:01:29;6.40;;;3.75;;
43919;SDS011;29578;51.946;5.874;2023-09-12T00:03:58;5.68;;;3.50;;
43919;SDS011;29578;51.946;5.874;2023-09-12T00:06:24;4.72;;;3.22;;
43919;SDS011;29578;51.946;5.874;2023-09-12T00:08:51;5.70;;;3.63;;
43919;SDS011;29578;51.946;5.874;2023-09-12T00:11:17;4.32;;;2.70;;
43919;SDS011;29578;51.946;5.874;2023-09-12T00:13:43;4.20;;;2.67;;
43919;SDS011;29578;51.946;5.874;2023-09-12T00:16:09;5.03;;;3.28;;
43919;SDS011;29578;51.946;5.874;2023-09-12T00:18:36;4.30;;;2.90;;
43919;SDS011;29578;51.946;5.874;2023-09-12T00:21:02;4.25;;;2.63;;
43919;SDS011;29578;51.946;5.874;2023-09-12T00:23:28;4.60;;;3.00;;
43919;SDS011;29578;51.946;5.874;2023-09-12T00:25:54;3.80;;;2.50;;
43919;SDS011;29578;51.946;5.874;2023-09-12T00:28:20;4.03;;;2.65;;
43919;SDS011;29578;51.946;5.874;2023-09-12T00:30:46;3.58;;;2.60;;
43919;SDS011;29578;51.946;5.874;2023-09-12T00:33:12;4.32;;;2.85;;
43919;SDS011;29578;51.946;5.874;2023-09-12T00:35:38;4.65;;;3.10;;
43919;SDS011;29578;51.946;5.874;2023-09-12T00:38:03;5.20;;;3.17;;
43919;SDS011;29578;51.946;5.874;2023-09-12T00:40:29;4.53;;;2.88;;
43919;SDS011;29578;51.946;5.874;2023-09-12T00:42:55;5.35;;;3.30;;
43919;SDS011;29578;51.946;5.874;2023-09-12T00:45:21;4.47;;;3.13;;
43919;SDS011;29578;51.946;5.874;2023-09-12T00:47:47;4.50;;;3.10;;
43919;SDS011;29578;51.946;5.874;2023-09-12T00:50:14;6.40;;;3.75;;
43919;SDS011;29578;51.946;5.874;2023-09-12T00:52:41;5.47;;;3.45;;
43919;SDS011;29578;51.946;5.874;2023-09-12T00:55:08;5.47;;;3.60;;
43919;SDS011;29578;51.946;5.874;2023-09-12T00:57:34;4.93;;;3.20;;
43919;SDS011;29578;51.946;5.874;2023-09-12T01:00:02;4.90;;;2.95;;
43919;SDS011;29578;51.946;5.874;2023-09-12T01:02:37;5.60;;;3.50;;
43919;SDS011;29578;51.946;5.874;2023-09-12T01:05:06;6.53;;;4.20;;
43919;SDS011;29578;51.946;5.874;2023-09-12T01:07:34;4.95;;;3.72;;
43919;SDS011;29578;51.946;5.874;2023-09-12T01:10:01;4.43;;;3.00;;
43919;SDS011;29578;51.946;5.874;2023-09-12T01:12:27;4.68;;;3.08;;
43919;SDS011;29578;51.946;5.874;2023-09-12T01:14:54;5.65;;;3.85;;
43919;SDS011;29578;51.946;5.874;2023-09-12T01:17:20;4.90;;;3.17;;
43919;SDS011;29578;51.946;5.874;2023-09-12T01:19:47;4.93;;;3.40;;
43919;SDS011;29578;51.946;5.874;2023-09-12T01:27:58;4.72;;;2.67;;
43919;SDS011;29578;51.946;5.874;2023-09-12T01:30:27;3.92;;;2.58;;
43919;SDS011;29578;51.946;5.874;2023-09-12T01:32:56;5.53;;;3.40;;
43919;SDS011;29578;51.946;5.874;2023-09-12T01:35:22;5.85;;;3.72;;
43919;SDS011;29578;51.946;5.874;2023-09-12T01:37:48;4.93;;;3.13;;
43919;SDS011;29578;51.946;5.874;2023-09-12T01:40:13;7.57;;;3.47;;
43919;SDS011;29578;51.946;5.874;2023-09-12T01:42:41;4.25;;;2.60;;
43919;SDS011;29578;51.946;5.874;2023-09-12T01:45:10;6.18;;;3.58;;
43919;SDS011;29578;51.946;5.874;2023-09-12T01:47:39;4.93;;;3.10;;
43919;SDS011;29578;51.946;5.874;2023-09-12T01:50:06;5.43;;;3.38;;
43919;SDS011;29578;51.946;5.874;2023-09-12T01:52:37;5.80;;;3.88;;
43919;SDS011;29578;51.946;5.874;2023-09-12T01:55:04;6.18;;;3.00;;
43919;SDS011;29578;51.946;5.874;2023-09-12T01:57:32;3.25;;;2.40;;
43919;SDS011;29578;51.946;5.874;2023-09-12T01:59:58;3.88;;;2.50;;
43919;SDS011;29578;51.946;5.874;2023-09-12T02:02:24;4.72;;;3.08;;
43919;SDS011;29578;51.946;5.874;2023-09-12T02:04:53;5.07;;;3.20;;
43919;SDS011;29578;51.946;5.874;2023-09-12T02:07:43;7.28;;;3.85;;
43919;SDS011;29578;51.946;5.874;2023-09-12T02:10:09;4.97;;;3.20;;
43919;SDS011;29578;51.946;5.874;2023-09-12T02:12:36;7.40;;;3.78;;
43919;SDS011;29578;51.946;5.874;2023-09-12T02:15:02;6.40;;;3.65;;
43919;SDS011;29578;51.946;5.874;2023-09-12T02:17:28;5.88;;;3.58;;
43919;SDS011;29578;51.946;5.874;2023-09-12T02:19:54;5.90;;;3.60;;
43919;SDS011;29578;51.946;5.874;2023-09-12T02:22:19;4.93;;;2.90;;
43919;SDS011;29578;51.946;5.874;2023-09-12T02:24:45;4.15;;;2.63;;
43919;SDS011;29578;51.946;5.874;2023-09-12T02:27:11;3.75;;;2.70;;
43919;SDS011;29578;51.946;5.874;2023-09-12T02:29:38;5.78;;;3.45;;
43919;SDS011;29578;51.946;5.874;2023-09-12T02:32:05;5.35;;;3.03;;
43919;SDS011;29578;51.946;5.874;2023-09-12T02:34:31;3.80;;;2.65;;
43919;SDS011;29578;51.946;5.874;2023-09-12T02:36:57;3.20;;;2.20;;
43919;SDS011;29578;51.946;5.874;2023-09-12T02:39:23;4.78;;;2.50;;
43919;SDS011;29578;51.946;5.874;2023-09-12T02:41:48;3.90;;;2.40;;
43919;SDS011;29578;51.946;5.874;2023-09-12T02:44:14;5.68;;;3.05;;
43919;SDS011;29578;51.946;5.874;2023-09-12T02:46:40;4.80;;;3.10;;
43919;SDS011;29578;51.946;5.874;2023-09-12T02:49:06;4.00;;;2.60;;
43919;SDS011;29578;51.946;5.874;2023-09-12T02:51:32;5.30;;;3.03;;
43919;SDS011;29578;51.946;5.874;2023-09-12T02:53:57;4.13;;;3.13;;
43919;SDS011;29578;51.946;5.874;2023-09-12T02:56:23;3.95;;;2.13;;
43919;SDS011;29578;51.946;5.874;2023-09-12T02:58:49;4.07;;;2.90;;
43919;SDS011;29578;51.946;5.874;2023-09-12T03:01:18;6.00;;;3.30;;
43919;SDS011;29578;51.946;5.874;2023-09-12T03:03:46;3.80;;;2.35;;
43919;SDS011;29578;51.946;5.874;2023-09-12T03:06:12;4.75;;;3.08;;
43919;SDS011;29578;51.946;5.874;2023-09-12T03:08:39;4.40;;;3.13;;
43919;SDS011;29578;51.946;5.874;2023-09-12T03:11:05;3.67;;;2.53;;
43919;SDS011;29578;51.946;5.874;2023-09-12T03:13:32;3.38;;;2.38;;
43919;SDS011;29578;51.946;5.874;2023-09-12T03:15:59;4.80;;;3.20;;
43919;SDS011;29578;51.946;5.874;2023-09-12T03:18:25;5.28;;;3.35;;
43919;SDS011;29578;51.946;5.874;2023-09-12T03:20:51;5.00;;;3.22;;
43919;SDS011;29578;51.946;5.874;2023-09-12T03:23:18;5.45;;;3.15;;
43919;SDS011;29578;51.946;5.874;2023-09-12T03:25:45;4.05;;;2.42;;
43919;SDS011;29578;51.946;5.874;2023-09-12T03:28:10;4.22;;;2.75;;
43919;SDS011;29578;51.946;5.874;2023-09-12T03:30:37;3.88;;;2.53;;
43919;SDS011;29578;51.946;5.874;2023-09-12T03:33:03;4.47;;;2.83;;
43919;SDS011;29578;51.946;5.874;2023-09-12T03:35:30;5.80;;;3.50;;
43919;SDS011;29578;51.946;5.874;2023-09-12T03:37:57;4.25;;;2.78;;
43919;SDS011;29578;51.946;5.874;2023-09-12T03:40:22;4.25;;;2.97;;
43919;SDS011;29578;51.946;5.874;2023-09-12T03:42:48;4.30;;;2.95;;
43919;SDS011;29578;51.946;5.874;2023-09-12T03:45:14;4.00;;;2.50;;
43919;SDS011;29578;51.946;5.874;2023-09-12T03:47:40;4.63;;;2.83;;
43919;SDS011;29578;51.946;5.874;2023-09-12T03:50:05;4.35;;;2.78;;
43919;SDS011;29578;51.946;5.874;2023-09-12T03:52:31;4.22;;;2.40;;
43919;SDS011;29578;51.946;5.874;2023-09-12T03:54:57;4.15;;;2.42;;
43919;SDS011;29578;51.946;5.874;2023-09-12T03:57:25;3.00;;;2.15;;
43919;SDS011;29578;51.946;5.874;2023-09-12T03:59:51;2.90;;;2.20;;
43919;SDS011;29578;51.946;5.874;2023-09-12T04:02:18;3.30;;;2.10;;
43919;SDS011;29578;51.946;5.874;2023-09-12T04:04:44;3.50;;;2.08;;
43919;SDS011;29578;51.946;5.874;2023-09-12T04:07:09;4.93;;;3.28;;
43919;SDS011;29578;51.946;5.874;2023-09-12T04:09:45;3.95;;;2.88;;
43919;SDS011;29578;51.946;5.874;2023-09-12T04:12:11;4.28;;;2.80;;
43919;SDS011;29578;51.946;5.874;2023-09-12T04:14:37;4.70;;;3.17;;
43919;SDS011;29578;51.946;5.874;2023-09-12T04:17:02;5.97;;;3.67;;
43919;SDS011;29578;51.946;5.874;2023-09-12T04:19:30;5.68;;;3.67;;
43919;SDS011;29578;51.946;5.874;2023-09-12T04:21:56;3.95;;;2.53;;
43919;SDS011;29578;51.946;5.874;2023-09-12T04:24:22;5.38;;;3.22;;
43919;SDS011;29578;51.946;5.874;2023-09-12T04:26:48;4.70;;;3.25;;
43919;SDS011;29578;51.946;5.874;2023-09-12T04:29:13;3.83;;;2.22;;
43919;SDS011;29578;51.946;5.874;2023-09-12T04:31:39;5.40;;;2.88;;
43919;SDS011;29578;51.946;5.874;2023-09-12T04:34:05;3.45;;;2.30;;
43919;SDS011;29578;51.946;5.874;2023-09-12T04:36:31;3.40;;;1.98;;
43919;SDS011;29578;51.946;5.874;2023-09-12T04:38:59;3.08;;;2.10;;
43919;SDS011;29578;51.946;5.874;2023-09-12T04:41:25;5.15;;;3.00;;
43919;SDS011;29578;51.946;5.874;2023-09-12T04:43:51;4.13;;;2.78;;
43919;SDS011;29578;51.946;5.874;2023-09-12T04:46:17;4.22;;;2.67;;
43919;SDS011;29578;51.946;5.874;2023-09-12T04:48:42;4.40;;;2.83;;
43919;SDS011;29578;51.946;5.874;2023-09-12T04:51:09;4.93;;;3.30;;
43919;SDS011;29578;51.946;5.874;2023-09-12T04:53:35;4.70;;;3.00;;
43919;SDS011;29578;51.946;5.874;2023-09-12T04:56:01;3.78;;;2.47;;
43919;SDS011;29578;51.946;5.874;2023-09-12T04:58:27;4.10;;;2.50;;
43919;SDS011;29578;51.946;5.874;2023-09-12T05:00:54;3.17;;;2.00;;
43919;SDS011;29578;51.946;5.874;2023-09-12T05:03:21;3.40;;;2.10;;
43919;SDS011;29578;51.946;5.874;2023-09-12T05:05:47;3.70;;;2.30;;
43919;SDS011;29578;51.946;5.874;2023-09-12T05:08:14;3.13;;;2.17;;
43919;SDS011;29578;51.946;5.874;2023-09-12T05:10:39;4.05;;;2.60;;
43919;SDS011;29578;51.946;5.874;2023-09-12T05:13:05;5.53;;;3.30;;
43919;SDS011;29578;51.946;5.874;2023-09-12T05:15:31;5.03;;;2.83;;
43919;SDS011;29578;51.946;5.874;2023-09-12T05:17:57;5.35;;;3.28;;
43919;SDS011;29578;51.946;5.874;2023-09-12T05:20:22;6.05;;;2.80;;
43919;SDS011;29578;51.946;5.874;2023-09-12T05:22:48;5.85;;;3.15;;
43919;SDS011;29578;51.946;5.874;2023-09-12T05:25:14;3.38;;;2.20;;
43919;SDS011;29578;51.946;5.874;2023-09-12T05:27:39;4.80;;;3.08;;
43919;SDS011;29578;51.946;5.874;2023-09-12T05:30:05;4.57;;;2.28;;
43919;SDS011;29578;51.946;5.874;2023-09-12T05:32:31;4.72;;;2.63;;
43919;SDS011;29578;51.946;5.874;2023-09-12T05:34:57;4.78;;;2.60;;
43919;SDS011;29578;51.946;5.874;2023-09-12T05:37:23;3.70;;;2.50;;
43919;SDS011;29578;51.946;5.874;2023-09-12T05:39:48;4.68;;;2.78;;
43919;SDS011;29578;51.946;5.874;2023-09-12T05:42:14;6.68;;;3.38;;
43919;SDS011;29578;51.946;5.874;2023-09-12T05:47:12;5.28;;;3.30;;
43919;SDS011;29578;51.946;5.874;2023-09-12T05:49:37;7.22;;;3.45;;
43919;SDS011;29578;51.946;5.874;2023-09-12T05:52:03;5.43;;;3.15;;
43919;SDS011;29578;51.946;5.874;2023-09-12T05:54:29;3.47;;;2.25;;
43919;SDS011;29578;51.946;5.874;2023-09-12T05:56:55;3.80;;;2.40;;
43919;SDS011;29578;51.946;5.874;2023-09-12T05:59:21;4.68;;;2.67;;
43919;SDS011;29578;51.946;5.874;2023-09-12T06:01:46;5.28;;;3.17;;
43919;SDS011;29578;51.946;5.874;2023-09-12T06:04:13;5.68;;;2.90;;
43919;SDS011;29578;51.946;5.874;2023-09-12T06:06:39;4.30;;;2.50;;
43919;SDS011;29578;51.946;5.874;2023-09-12T06:09:05;5.95;;;3.35;;
43919;SDS011;29578;51.946;5.874;2023-09-12T06:11:31;5.72;;;3.60;;
43919;SDS011;29578;51.946;5.874;2023-09-12T06:13:57;4.40;;;2.83;;
43919;SDS011;29578;51.946;5.874;2023-09-12T06:16:22;6.65;;;3.90;;
43919;SDS011;29578;51.946;5.874;2023-09-12T06:18:49;5.32;;;3.25;;
43919;SDS011;29578;51.946;5.874;2023-09-12T06:21:15;5.63;;;3.30;;
43919;SDS011;29578;51.946;5.874;2023-09-12T06:23:40;6.70;;;4.25;;
43919;SDS011;29578;51.946;5.874;2023-09-12T06:26:06;5.28;;;3.00;;
43919;SDS011;29578;51.946;5.874;2023-09-12T06:28:32;5.03;;;2.97;;
43919;SDS011;29578;51.946;5.874;2023-09-12T06:30:57;5.20;;;2.97;;
43919;SDS011;29578;51.946;5.874;2023-09-12T06:33:25;5.05;;;3.05;;
43919;SDS011;29578;51.946;5.874;2023-09-12T06:35:51;7.07;;;3.83;;
43919;SDS011;29578;51.946;5.874;2023-09-12T06:38:19;6.25;;;3.70;;
43919;SDS011;29578;51.946;5.874;2023-09-12T06:40:46;7.72;;;4.40;;
43919;SDS011;29578;51.946;5.874;2023-09-12T06:43:12;5.22;;;3.10;;
43919;SDS011;29578;51.946;5.874;2023-09-12T06:45:40;5.85;;;3.30;;
43919;SDS011;29578;51.946;5.874;2023-09-12T06:48:06;7.22;;;3.95;;
43919;SDS011;29578;51.946;5.874;2023-09-12T06:50:32;6.22;;;4.00;;
43919;SDS011;29578;51.946;5.874;2023-09-12T06:52:58;9.00;;;5.32;;
43919;SDS011;29578;51.946;5.874;2023-09-12T06:55:24;6.15;;;3.42;;
43919;SDS011;29578;51.946;5.874;2023-09-12T06:57:50;6.70;;;3.92;;
43919;SDS011;29578;51.946;5.874;2023-09-12T07:00:15;7.55;;;4.30;;
43919;SDS011;29578;51.946;5.874;2023-09-12T07:02:42;6.95;;;4.78;;
43919;SDS011;29578;51.946;5.874;2023-09-12T07:05:08;8.20;;;4.60;;
43919;SDS011;29578;51.946;5.874;2023-09-12T07:07:33;8.15;;;5.38;;
43919;SDS011;29578;51.946;5.874;2023-09-12T07:09:59;7.95;;;4.88;;
43919;SDS011;29578;51.946;5.874;2023-09-12T07:12:26;7.53;;;4.32;;
43919;SDS011;29578;51.946;5.874;2023-09-12T07:14:54;8.43;;;5.05;;
43919;SDS011;29578;51.946;5.874;2023-09-12T07:17:21;6.18;;;3.72;;
43919;SDS011;29578;51.946;5.874;2023-09-12T07:19:46;7.60;;;4.22;;
43919;SDS011;29578;51.946;5.874;2023-09-12T07:22:12;8.00;;;4.78;;
43919;SDS011;29578;51.946;5.874;2023-09-12T07:24:38;9.45;;;4.95;;
43919;SDS011;29578;51.946;5.874;2023-09-12T07:27:04;6.47;;;3.90;;
43919;SDS011;29578;51.946;5.874;2023-09-12T07:29:30;5.47;;;3.70;;
43919;SDS011;29578;51.946;5.874;2023-09-12T07:31:55;6.60;;;4.28;;
43919;SDS011;29578;51.946;5.874;2023-09-12T07:34:21;7.35;;;4.35;;
43919;SDS011;29578;51.946;5.874;2023-09-12T07:36:48;6.63;;;4.15;;
43919;SDS011;29578;51.946;5.874;2023-09-12T07:39:13;8.35;;;4.75;;
43919;SDS011;29578;51.946;5.874;2023-09-12T07:41:39;8.68;;;4.95;;
43919;SDS011;29578;51.946;5.874;2023-09-12T07:44:05;7.38;;;4.80;;
43919;SDS011;29578;51.946;5.874;2023-09-12T07:46:32;8.70;;;4.82;;
43919;SDS011;29578;51.946;5.874;2023-09-12T07:48:58;6.88;;;4.43;;
43919;SDS011;29578;51.946;5.874;2023-09-12T07:51:24;6.68;;;3.90;;
43919;SDS011;29578;51.946;5.874;2023-09-12T07:53:50;6.80;;;3.95;;
43919;SDS011;29578;51.946;5.874;2023-09-12T07:56:15;8.80;;;5.47;;
43919;SDS011;29578;51.946;5.874;2023-09-12T07:58:41;7.03;;;4.40;;
43919;SDS011;29578;51.946;5.874;2023-09-12T08:01:07;6.95;;;4.40;;
43919;SDS011;29578;51.946;5.874;2023-09-12T08:03:35;5.07;;;3.13;;
43919;SDS011;29578;51.946;5.874;2023-09-12T08:06:02;6.90;;;3.92;;
43919;SDS011;29578;51.946;5.874;2023-09-12T08:08:28;5.90;;;3.53;;
43919;SDS011;29578;51.946;5.874;2023-09-12T08:10:54;6.53;;;4.10;;
43919;SDS011;29578;51.946;5.874;2023-09-12T08:13:20;7.57;;;4.68;;
43919;SDS011;29578;51.946;5.874;2023-09-12T08:15:46;9.10;;;5.55;;
43919;SDS011;29578;51.946;5.874;2023-09-12T08:18:12;8.93;;;5.55;;
43919;SDS011;29578;51.946;5.874;2023-09-12T08:20:37;6.18;;;3.65;;
43919;SDS011;29578;51.946;5.874;2023-09-12T08:23:03;6.95;;;4.20;;
43919;SDS011;29578;51.946;5.874;2023-09-12T08:25:29;10.27;;;5.35;;
43919;SDS011;29578;51.946;5.874;2023-09-12T08:27:55;11.40;;;6.57;;
43919;SDS011;29578;51.946;5.874;2023-09-12T08:30:21;7.60;;;4.68;;
43919;SDS011;29578;51.946;5.874;2023-09-12T08:32:47;6.85;;;4.30;;
43919;SDS011;29578;51.946;5.874;2023-09-12T08:35:13;7.78;;;4.47;;
43919;SDS011;29578;51.946;5.874;2023-09-12T08:37:40;7.90;;;4.82;;
43919;SDS011;29578;51.946;5.874;2023-09-12T08:40:07;7.68;;;4.30;;
43919;SDS011;29578;51.946;5.874;2023-09-12T08:42:42;7.97;;;4.68;;
43919;SDS011;29578;51.946;5.874;2023-09-12T08:45:13;6.85;;;4.13;;
43919;SDS011;29578;51.946;5.874;2023-09-12T08:47:43;6.90;;;4.30;;
43919;SDS011;29578;51.946;5.874;2023-09-12T08:50:10;6.03;;;3.75;;
43919;SDS011;29578;51.946;5.874;2023-09-12T08:52:38;7.50;;;4.35;;
43919;SDS011;29578;51.946;5.874;2023-09-12T08:55:07;5.90;;;3.67;;
43919;SDS011;29578;51.946;5.874;2023-09-12T08:57:33;8.02;;;4.68;;
43919;SDS011;29578;51.946;5.874;2023-09-12T09:00:03;5.50;;;3.70;;
43919;SDS011;29578;51.946;5.874;2023-09-12T09:02:41;7.65;;;4.53;;
43919;SDS011;29578;51.946;5.874;2023-09-12T09:05:08;7.40;;;4.90;;
43919;SDS011;29578;51.946;5.874;2023-09-12T09:07:36;5.25;;;3.60;;
43919;SDS011;29578;51.946;5.874;2023-09-12T09:10:03;5.47;;;3.47;;
43919;SDS011;29578;51.946;5.874;2023-09-12T09:12:31;6.90;;;3.72;;
43919;SDS011;29578;51.946;5.874;2023-09-12T09:14:57;7.70;;;4.03;;
43919;SDS011;29578;51.946;5.874;2023-09-12T09:17:23;5.68;;;3.20;;
43919;SDS011;29578;51.946;5.874;2023-09-12T09:19:49;5.97;;;3.55;;
43919;SDS011;29578;51.946;5.874;2023-09-12T09:22:15;6.38;;;4.15;;
43919;SDS011;29578;51.946;5.874;2023-09-12T09:24:41;4.30;;;2.85;;
43919;SDS011;29578;51.946;5.874;2023-09-12T09:27:07;4.78;;;3.15;;
43919;SDS011;29578;51.946;5.874;2023-09-12T09:29:32;5.85;;;3.80;;
43919;SDS011;29578;51.946;5.874;2023-09-12T09:32:16;6.97;;;4.22;;
43919;SDS011;29578;51.946;5.874;2023-09-12T09:37:09;3.75;;;2.53;;
43919;SDS011;29578;51.946;5.874;2023-09-12T09:39:35;4.50;;;3.00;;
43919;SDS011;29578;51.946;5.874;2023-09-12T09:42:00;4.38;;;2.67;;
43919;SDS011;29578;51.946;5.874;2023-09-12T09:44:26;3.78;;;2.33;;
43919;SDS011;29578;51.946;5.874;2023-09-12T09:46:54;4.60;;;2.72;;
43919;SDS011;29578;51.946;5.874;2023-09-12T09:49:25;3.78;;;2.35;;
43919;SDS011;29578;51.946;5.874;2023-09-12T09:51:51;5.63;;;3.13;;
43919;SDS011;29578;51.946;5.874;2023-09-12T09:54:21;3.97;;;2.50;;
43919;SDS011;29578;51.946;5.874;2023-09-12T09:56:56;4.80;;;2.92;;
43919;SDS011;29578;51.946;5.874;2023-09-12T09:59:23;4.60;;;2.97;;
43919;SDS011;29578;51.946;5.874;2023-09-12T10:01:51;5.03;;;3.17;;
43919;SDS011;29578;51.946;5.874;2023-09-12T10:04:22;5.15;;;3.45;;
43919;SDS011;29578;51.946;5.874;2023-09-12T10:06:48;4.55;;;2.72;;
43919;SDS011;29578;51.946;5.874;2023-09-12T10:09:14;4.65;;;3.17;;
43919;SDS011;29578;51.946;5.874;2023-09-12T10:11:42;5.30;;;3.17;;
43919;SDS011;29578;51.946;5.874;2023-09-12T10:14:11;5.30;;;3.30;;
43919;SDS011;29578;51.946;5.874;2023-09-12T10:16:48;5.60;;;3.65;;
43919;SDS011;29578;51.946;5.874;2023-09-12T10:19:16;5.32;;;3.25;;
43919;SDS011;29578;51.946;5.874;2023-09-12T10:22:06;3.38;;;2.30;;
43919;SDS011;29578;51.946;5.874;2023-09-12T10:24:43;3.33;;;2.22;;
43919;SDS011;29578;51.946;5.874;2023-09-12T10:27:11;3.00;;;1.92;;
43919;SDS011;29578;51.946;5.874;2023-09-12T10:29:38;4.45;;;2.60;;
43919;SDS011;29578;51.946;5.874;2023-09-12T10:32:04;4.05;;;2.60;;
43919;SDS011;29578;51.946;5.874;2023-09-12T10:34:31;5.32;;;3.42;;
43919;SDS011;29578;51.946;5.874;2023-09-12T10:36:58;5.00;;;3.15;;
43919;SDS011;29578;51.946;5.874;2023-09-12T10:39:26;4.55;;;2.90;;
43919;SDS011;29578;51.946;5.874;2023-09-12T10:41:54;4.97;;;3.30;;
43919;SDS011;29578;51.946;5.874;2023-09-12T10:44:21;4.30;;;2.65;;
43919;SDS011;29578;51.946;5.874;2023-09-12T10:46:47;4.55;;;2.97;;
43919;SDS011;29578;51.946;5.874;2023-09-12T10:49:14;5.47;;;3.08;;
43919;SDS011;29578;51.946;5.874;2023-09-12T10:51:42;3.75;;;2.45;;
43919;SDS011;29578;51.946;5.874;2023-09-12T10:54:12;4.10;;;2.10;;
43919;SDS011;29578;51.946;5.874;2023-09-12T10:57:04;4.75;;;2.88;;
43919;SDS011;29578;51.946;5.874;2023-09-12T10:59:31;4.78;;;2.80;;
43919;SDS011;29578;51.946;5.874;2023-09-12T11:04:52;4.13;;;2.50;;
43919;SDS011;29578;51.946;5.874;2023-09-12T11:07:29;3.25;;;2.42;;
43919;SDS011;29578;51.946;5.874;2023-09-12T11:10:18;4.07;;;2.47;;
43919;SDS011;29578;51.946;5.874;2023-09-12T11:12:46;2.13;;;1.80;;
43919;SDS011;29578;51.946;5.874;2023-09-12T11:15:14;3.05;;;1.80;;
43919;SDS011;29578;51.946;5.874;2023-09-12T11:17:40;1.90;;;1.50;;
43919;SDS011;29578;51.946;5.874;2023-09-12T11:20:08;2.85;;;2.03;;
43919;SDS011;29578;51.946;5.874;2023-09-12T11:22:36;2.55;;;2.00;;
43919;SDS011;29578;51.946;5.874;2023-09-12T11:25:04;2.38;;;1.63;;
43919;SDS011;29578;51.946;5.874;2023-09-12T11:27:45;3.05;;;2.13;;
43919;SDS011;29578;51.946;5.874;2023-09-12T11:30:29;2.92;;;1.95;;
43919;SDS011;29578;51.946;5.874;2023-09-12T11:32:56;4.35;;;2.70;;
43919;SDS011;29578;51.946;5.874;2023-09-12T11:35:23;3.38;;;2.20;;
43919;SDS011;29578;51.946;5.874;2023-09-12T11:37:51;4.25;;;2.40;;
43919;SDS011;29578;51.946;5.874;2023-09-12T11:40:27;2.90;;;2.00;;
43919;SDS011;29578;51.946;5.874;2023-09-12T11:43:08;4.10;;;2.30;;
43919;SDS011;29578;51.946;5.874;2023-09-12T11:45:51;3.55;;;2.45;;
43919;SDS011;29578;51.946;5.874;2023-09-12T11:48:19;2.95;;;2.10;;
43919;SDS011;29578;51.946;5.874;2023-09-12T11:50:53;2.95;;;2.20;;
43919;SDS011;29578;51.946;5.874;2023-09-12T11:53:20;2.35;;;1.75;;
43919;SDS011;29578;51.946;5.874;2023-09-12T11:55:50;2.90;;;1.88;;
43919;SDS011;29578;51.946;5.874;2023-09-12T11:58:18;2.78;;;1.77;;
43919;SDS011;29578;51.946;5.874;2023-09-12T12:00:45;2.67;;;1.92;;
43919;SDS011;29578;51.946;5.874;2023-09-12T12:03:22;2.50;;;1.50;;
43919;SDS011;29578;51.946;5.874;2023-09-12T12:06:03;1.98;;;1.52;;
43919;SDS011;29578;51.946;5.874;2023-09-12T12:08:29;2.05;;;1.60;;
43919;SDS011;29578;51.946;5.874;2023-09-12T12:10:56;3.13;;;2.00;;
43919;SDS011;29578;51.946;5.874;2023-09-12T12:13:23;2.80;;;1.80;;
43919;SDS011;29578;51.946;5.874;2023-09-12T12:15:49;1.65;;;1.42;;
43919;SDS011;29578;51.946;5.874;2023-09-12T12:18:15;2.15;;;1.55;;
43919;SDS011;29578;51.946;5.874;2023-09-12T12:20:41;2.80;;;1.60;;
43919;SDS011;29578;51.946;5.874;2023-09-12T12:23:07;2.22;;;1.70;;
43919;SDS011;29578;51.946;5.874;2023-09-12T12:25:33;2.72;;;1.67;;
43919;SDS011;29578;51.946;5.874;2023-09-12T12:28:00;2.28;;;1.60;;
43919;SDS011;29578;51.946;5.874;2023-09-12T12:30:29;2.17;;;1.52;;
43919;SDS011;29578;51.946;5.874;2023-09-12T12:32:57;3.80;;;1.88;;
43919;SDS011;29578;51.946;5.874;2023-09-12T12:35:23;3.58;;;2.05;;
43919;SDS011;29578;51.946;5.874;2023-09-12T12:37:49;1.83;;;1.55;;
43919;SDS011;29578;51.946;5.874;2023-09-12T12:40:16;2.28;;;1.70;;
43919;SDS011;29578;51.946;5.874;2023-09-12T12:42:42;3.28;;;2.15;;
43919;SDS011;29578;51.946;5.874;2023-09-12T12:45:12;2.97;;;1.88;;
43919;SDS011;29578;51.946;5.874;2023-09-12T12:47:39;2.95;;;2.00;;
43919;SDS011;29578;51.946;5.874;2023-09-12T12:50:07;2.60;;;1.70;;
43919;SDS011;29578;51.946;5.874;2023-09-12T12:52:38;2.10;;;1.65;;
43919;SDS011;29578;51.946;5.874;2023-09-12T12:55:05;2.45;;;1.80;;
43919;SDS011;29578;51.946;5.874;2023-09-12T12:57:35;3.97;;;2.35;;
43919;SDS011;29578;51.946;5.874;2023-09-12T13:00:01;3.20;;;2.22;;
43919;SDS011;29578;51.946;5.874;2023-09-12T13:02:29;3.15;;;2.00;;
43919;SDS011;29578;51.946;5.874;2023-09-12T13:04:56;2.75;;;1.75;;
43919;SDS011;29578;51.946;5.874;2023-09-12T13:07:22;2.75;;;1.92;;
43919;SDS011;29578;51.946;5.874;2023-09-12T13:09:49;1.85;;;1.40;;
43919;SDS011;29578;51.946;5.874;2023-09-12T13:12:14;2.22;;;1.73;;
43919;SDS011;29578;51.946;5.874;2023-09-12T13:14:42;2.75;;;2.00;;
43919;SDS011;29578;51.946;5.874;2023-09-12T13:17:09;1.92;;;1.50;;
43919;SDS011;29578;51.946;5.874;2023-09-12T13:19:35;1.83;;;1.40;;
43919;SDS011;29578;51.946;5.874;2023-09-12T13:22:01;2.15;;;1.80;;
43919;SDS011;29578;51.946;5.874;2023-09-12T13:24:27;1.73;;;1.35;;
43919;SDS011;29578;51.946;5.874;2023-09-12T13:26:53;2.17;;;1.58;;
43919;SDS011;29578;51.946;5.874;2023-09-12T13:29:19;2.00;;;1.58;;
43919;SDS011;29578;51.946;5.874;2023-09-12T13:31:45;2.60;;;1.63;;
43919;SDS011;29578;51.946;5.874;2023-09-12T13:34:10;1.80;;;1.60;;
43919;SDS011;29578;51.946;5.874;2023-09-12T13:36:36;1.67;;;1.30;;
43919;SDS011;29578;51.946;5.874;2023-09-12T13:39:02;2.08;;;1.38;;
43919;SDS011;29578;51.946;5.874;2023-09-12T13:41:29;1.95;;;1.52;;
43919;SDS011;29578;51.946;5.874;2023-09-12T13:43:54;2.67;;;1.80;;
43919;SDS011;29578;51.946;5.874;2023-09-12T13:46:20;1.98;;;1.38;;
43919;SDS011;29578;51.946;5.874;2023-09-12T13:48:46;2.05;;;1.60;;
43919;SDS011;29578;51.946;5.874;2023-09-12T13:51:11;2.03;;;1.60;;
43919;SDS011;29578;51.946;5.874;2023-09-12T13:53:38;3.65;;;1.70;;
43919;SDS011;29578;51.946;5.874;2023-09-12T13:56:04;2.47;;;1.60;;
43919;SDS011;29578;51.946;5.874;2023-09-12T13:58:31;1.98;;;1.60;;
43919;SDS011;29578;51.946;5.874;2023-09-12T14:00:58;2.20;;;1.60;;
43919;SDS011;29578;51.946;5.874;2023-09-12T14:03:24;2.53;;;1.40;;
43919;SDS011;29578;51.946;5.874;2023-09-12T14:05:49;1.70;;;1.45;;
43919;SDS011;29578;51.946;5.874;2023-09-12T14:08:15;1.92;;;1.52;;
43919;SDS011;29578;51.946;5.874;2023-09-12T14:10:42;2.35;;;1.55;;
43919;SDS011;29578;51.946;5.874;2023-09-12T14:13:08;1.30;;;1.20;;
43919;SDS011;29578;51.946;5.874;2023-09-12T14:15:33;1.45;;;1.30;;
43919;SDS011;29578;51.946;5.874;2023-09-12T14:17:59;1.60;;;1.30;;
43919;SDS011;29578;51.946;5.874;2023-09-12T14:20:25;2.10;;;1.50;;
43919;SDS011;29578;51.946;5.874;2023-09-12T14:22:50;1.98;;;1.33;;
43919;SDS011;29578;51.946;5.874;2023-09-12T14:25:16;2.15;;;1.33;;
43919;SDS011;29578;51.946;5.874;2023-09-12T14:27:42;1.42;;;1.30;;
43919;SDS011;29578;51.946;5.874;2023-09-12T14:30:09;1.70;;;1.38;;
43919;SDS011;29578;51.946;5.874;2023-09-12T14:32:37;1.88;;;1.50;;
43919;SDS011;29578;51.946;5.874;2023-09-12T14:35:03;2.65;;;1.65;;
43919;SDS011;29578;51.946;5.874;2023-09-12T14:37:29;1.52;;;1.40;;
43919;SDS011;29578;51.946;5.874;2023-09-12T14:39:55;3.20;;;1.50;;
43919;SDS011;29578;51.946;5.874;2023-09-12T14:42:21;2.40;;;1.70;;
43919;SDS011;29578;51.946;5.874;2023-09-12T14:44:47;2.33;;;1.60;;
43919;SDS011;29578;51.946;5.874;2023-09-12T14:47:13;2.00;;;1.60;;
43919;SDS011;29578;51.946;5.874;2023-09-12T14:49:38;1.52;;;1.30;;
43919;SDS011;29578;51.946;5.874;2023-09-12T14:52:04;1.67;;;1.30;;
43919;SDS011;29578;51.946;5.874;2023-09-12T14:54:30;2.47;;;1.63;;
43919;SDS011;29578;51.946;5.874;2023-09-12T14:56:56;2.85;;;1.70;;
43919;SDS011;29578;51.946;5.874;2023-09-12T14:59:27;1.70;;;1.40;;
43919;SDS011;29578;51.946;5.874;2023-09-12T15:01:52;2.25;;;1.70;;